LET weather

Alfredo Vásquez Cobo International Airport
Leticia, Amazonas Department, Colombia

Public forecast

Using degrees Celsius for public forecast. Weather courtesy of forecast.io.

METAR (pilot weather report)

Retrieved 2018/11/14 08:00 UTC (17 minutes ago):

SKLT 140800Z 21007KT 7000 TSRA SCT010CB BKN080 25/25 A2979 RMK CB/NE

TAF (pilot weather forecast)

Forecast is more than 12 hours old.

Retrieved 2018/11/13 06:00 UTC (1 day ago):

TAF SKLT 130500Z 1306/1406 00000KT 9999 FEW015 BKN200 PROB40 TEMPO 1310/1312 5000 BR SCT010 BKN080 BECMG 1315/1317 25011KT TEMPO 1319/1322 7000 DZ SCT017CB BECMG 1401/1403 00000KT TX34/1318Z TN23/1311Z